Latest Weather Observations for Moree

IDN60801

Issued at 6:33 am EST Sunday 31 July 2016 (issued every 30 minutes, with the page automatically refreshed every 10 minutes)

About weather observations | Map of weather stations | Latest weather observations for NSW | Other Formats
Station Details ID: 053115 Name: MOREE AERO Lat: -29.49 Lon: 149.85 Height: 213.0 m
Data from the previous 72 hours. | See also: Recent months at Moree
Date/Time
EST
Temp
°C
App
Temp
°C
Dew
Point
°C
Rel
Hum
%
Delta-T
°C
Wind Press
QNH
hPa
Press
MSL
hPa
Rain since
9am
mm
Dir  Spd
km/h
Gust
km/h
Spd
kts
Gust
kts
31/06:30am 1.8 -2.5 1.2 96 0.2 NE 13 15 7 8 1021.2 1021.4 0.0
31/06:00am 1.2 -2.0 0.5 95 0.3 E 7 13 4 7 1021.0 1021.2 0.0
31/05:30am 1.2 -2.8 0.5 95 0.3 ESE 11 13 6 7 1020.7 1020.9 0.0
31/05:00am 1.4 -2.2 0.7 95 0.3 E 9 13 5 7 1020.5 1020.7 0.0
31/04:30am 1.5 -2.1 0.6 94 0.3 E 9 13 5 7 1019.9 1020.1 0.0
31/04:00am 1.8 -1.7 1.1 95 0.3 E 9 11 5 6 1019.8 1020.0 0.0
31/03:30am 2.1 -1.4 1.4 95 0.3 E 9 11 5 6 1020.0 1020.2 0.0
31/03:00am 2.4 -1.0 1.7 95 0.3 ENE 9 11 5 6 1019.9 1020.1 0.0
31/02:30am 2.7 -0.3 2.0 95 0.3 ENE 7 11 4 6 1020.2 1020.4 0.0
31/02:00am 2.4 -1.8 1.5 94 0.3 ENE 13 13 7 7 1020.5 1020.7 0.0
31/01:30am 2.7 -1.4 2.0 95 0.3 ENE 13 13 7 7 1020.6 1020.8 0.0
31/01:00am 2.4 -0.5 1.7 95 0.3 ENE 6 7 3 4 1021.0 1021.2 0.0
31/12:30am 2.3 -1.2 1.1 92 0.5 NE 9 9 5 5 1021.1 1021.3 0.0
31/12:00am 3.5 1.9 2.2 91 0.5 CALM 0 0 0 0 1021.5 1021.6 0.0
 
Date/Time
EST
Temp
°C
App
Temp
°C
Dew
Point
°C
Rel
Hum
%
Delta-T
°C
Wind Press
QNH
hPa
Press
MSL
hPa
Rain since
9am
mm
Dir  Spd
km/h
Gust
km/h
Spd
kts
Gust
kts
30/11:30pm 3.7 2.1 2.7 93 0.4 CALM 0 6 0 3 1021.6 1021.7 0.0
30/11:00pm 3.7 1.7 2.5 92 0.5 ENE 2 7 1 4 1021.6 1021.7 0.0
30/10:30pm 4.2 1.3 2.7 90 0.6 NE 7 9 4 5 1021.3 1021.5 0.0
30/10:00pm 4.8 1.9 2.8 87 0.8 NNE 7 7 4 4 1021.2 1021.4 0.0
30/09:30pm 5.0 2.3 2.7 85 0.9 NNE 6 9 3 5 1021.3 1021.5 0.0
30/09:00pm 5.9 4.4 3.2 83 1.1 CALM 0 0 0 0 1021.3 1021.5 0.0
30/08:30pm 6.2 4.8 3.4 82 1.2 CALM 0 0 0 0 1020.9 1021.1 0.0
30/08:00pm 6.6 3.8 3.2 79 1.4 SSW 7 11 4 6 1020.9 1021.1 0.0
30/07:30pm 8.3 7.1 4.7 78 1.6 CALM 0 0 0 0 1020.8 1021.0 0.0
30/07:00pm 8.8 7.1 3.8 71 2.2 SW 2 6 1 3 1020.8 1021.0 0.0
30/06:30pm 10.2 7.1 3.5 63 3.0 SW 9 11 5 6 1020.6 1020.8 0.0
30/06:00pm 11.8 9.3 5.0 63 3.1 W 7 9 4 5 1020.4 1020.6 0.0
30/05:30pm 12.7 9.8 4.9 59 3.6 NW 9 11 5 6 1020.2 1020.4 0.0
30/05:00pm 14.4 11.6 5.2 54 4.4 W 9 13 5 7 1020.1 1020.3 0.0
30/04:30pm 15.0 11.4 5.0 51 4.8 WSW 13 17 7 9 1019.8 1020.0 0.0
30/04:00pm 16.0 14.1 5.0 48 5.3 SW 4 13 2 7 1019.7 1019.9 0.0
30/03:30pm 15.9 13.0 4.9 48 5.3 W 9 15 5 8 1019.6 1019.7 0.0
30/03:00pm 15.2 12.3 4.6 49 5.0 WSW 9 13 5 7 1019.8 1020.0 0.0
30/02:30pm 14.8 12.0 3.3 46 5.3 NW 7 13 4 7 1019.9 1020.1 0.0
30/02:00pm 14.5 11.8 3.9 49 4.9 NNW 7 11 4 6 1020.1 1020.3 0.0
30/01:30pm 14.2 11.7 4.8 53 4.4 WSW 7 11 4 6 1020.4 1020.6 0.0
30/01:00pm 13.5 10.8 5.7 59 3.7 WSW 9 15 5 8 1021.1 1021.3 0.0
30/12:30pm 12.6 10.8 5.5 62 3.3 NW 4 9 2 5 1021.7 1021.8 0.0
30/12:00pm 11.4 8.6 5.1 65 2.9 NNE 9 13 5 7 1022.2 1022.3 0.0
30/11:30am 10.7 7.9 5.3 69 2.5 N 9 11 5 6 1022.6 1022.7 0.0
30/11:00am 9.5 7.3 5.5 76 1.8 N 6 9 3 5 1023.0 1023.1 0.0
30/10:30am 7.8 4.9 4.7 81 1.4 NNE 9 15 5 8 1023.4 1023.5 0.0
30/10:28am 7.5 4.6 4.6 82 1.3 NNE 9 15 5 8 1023.4 1023.5 0.0
30/10:00am 6.4 2.7 4.7 89 0.7 NNE 13 17 7 9 1023.3 1023.4 0.0
30/09:38am 5.7 2.1 5.1 96 0.3 NE 13 17 7 9 1023.3 1023.4 0.0
30/09:30am 4.9 1.6 4.3 96 0.3 NE 11 15 6 8 1023.3 1023.4 0.0
30/09:00am 3.8 0.3 3.4 97 0.2 NE 11 13 6 7 1023.3 1023.4 0.0
30/08:30am 3.4 1.1 3.0 97 0.2 NE 4 9 2 5 1023.3 1023.4 0.0
30/08:00am 2.3 0.2 2.0 98 0.1 NW 2 9 1 5 1023.7 1023.9 0.0
30/07:30am 1.5 -0.3 1.1 97 0.2 CALM 0 0 0 0 1023.0 1023.1 0.0
30/07:00am 2.2 0.5 1.8 97 0.2 CALM 0 0 0 0 1023.0 1023.1 0.0
30/06:30am 2.4 0.3 2.0 97 0.2 NNE 2 7 1 4 1022.6 1022.7 0.0
30/06:00am 2.8 0.1 2.4 97 0.2 E 6 7 3 4 1022.3 1022.4 0.0
30/05:30am 2.3 0.6 1.9 97 0.2 CALM 0 0 0 0 1022.2 1022.3 0.0
30/05:00am 1.4 -0.4 1.0 97 0.2 CALM 0 0 0 0 1022.1 1022.2 0.0
30/04:30am 0.7 -2.0 0.3 97 0.1 SW 4 7 2 4 1021.8 1021.9 0.0
30/04:03am 1.0 -2.6 0.6 97 0.1 WNW 9 11 5 6 1021.6 1021.7 0.0
30/04:00am 0.9 -2.7 0.5 97 0.1 W 9 11 5 6 1021.6 1021.7 0.0
30/03:51am 1.1 -2.5 0.7 97 0.2 W 9 11 5 6 1021.8 1021.9 0.0
30/03:30am 1.1 -2.9 0.5 96 0.2 SE 11 13 6 7 1021.9 1022.0 0.0
30/03:20am 1.8 -2.1 1.2 96 0.2 SE 11 11 6 6 1022.0 1022.1 0.0
30/03:00am 2.0 -1.1 1.4 96 0.2 S 7 9 4 5 1022.2 1022.3 0.0
30/02:51am 1.8 -1.3 1.2 96 0.2 SSW 7 9 4 5 1022.3 1022.4 0.0
30/02:30am 2.1 -0.8 1.4 95 0.3 SSW 6 7 3 4 1022.4 1022.5 0.0
30/02:00am 2.0 -1.0 1.1 94 0.3 WSW 6 6 3 3 1022.6 1022.7 0.0
30/01:30am 2.7 -0.1 1.8 94 0.4 W 6 7 3 4 1023.0 1023.1 0.0
30/01:00am 3.2 0.2 2.2 93 0.4 WSW 7 9 4 5 1023.3 1023.4 0.0
30/12:30am 3.5 0.6 2.5 93 0.4 WSW 7 7 4 4 1023.4 1023.5 0.0
30/12:00am 3.8 0.9 2.5 91 0.5 WSW 7 7 4 4 1023.4 1023.5 0.0
 
Date/Time
EST
Temp
°C
App
Temp
°C
Dew
Point
°C
Rel
Hum
%
Delta-T
°C
Wind Press
QNH
hPa
Press
MSL
hPa
Rain since
9am
mm
Dir  Spd
km/h
Gust
km/h
Spd
kts
Gust
kts
29/11:30pm 4.2 0.9 2.6 89 0.7 WSW 9 9 5 5 1023.8 1024.0 0.0
29/11:00pm 4.7 1.5 2.9 88 0.7 WSW 9 11 5 6 1023.8 1024.0 0.0
29/10:30pm 5.0 1.4 2.9 86 0.9 W 11 11 6 6 1023.8 1024.0 0.0
29/10:00pm 5.3 1.7 2.7 83 1.1 WSW 11 11 6 6 1023.6 1023.8 0.0
29/09:30pm 5.7 1.4 3.0 83 1.1 WSW 15 15 8 8 1023.7 1023.9 0.0
29/09:00pm 6.0 2.8 3.0 81 1.3 W 9 11 5 6 1023.5 1023.7 0.0
29/08:30pm 6.7 2.7 2.8 76 1.6 WSW 13 15 7 8 1023.4 1023.5 0.0
29/08:00pm 7.0 3.0 3.1 76 1.6 WSW 13 15 7 8 1023.2 1023.3 0.0
29/07:30pm 7.7 4.2 3.6 75 1.8 W 11 11 6 6 1023.0 1023.1 0.0
29/07:00pm 8.5 5.0 3.6 71 2.1 W 11 13 6 7 1022.7 1022.8 0.0
29/06:30pm 9.3 5.9 3.9 69 2.4 W 11 13 6 7 1022.7 1022.8 0.0
29/06:00pm 10.5 6.3 4.0 64 2.9 W 15 17 8 9 1022.4 1022.5 0.0
29/05:30pm 11.9 7.4 4.4 60 3.4 W 17 19 9 10 1022.1 1022.2 0.0
29/05:00pm 13.8 9.4 4.7 54 4.2 WSW 17 20 9 11 1022.0 1022.1 0.0
29/04:30pm 14.6 9.7 4.3 50 4.8 WSW 19 22 10 12 1022.0 1022.1 0.0
29/04:00pm 15.0 10.4 3.8 47 5.2 WSW 17 22 9 12 1022.0 1022.1 0.0
29/03:30pm 15.8 10.9 4.2 46 5.5 WSW 19 26 10 14 1022.0 1022.1 0.0
29/03:00pm 15.3 10.2 2.8 43 5.7 WSW 19 26 10 14 1022.2 1022.3 0.0
29/02:30pm 16.0 11.2 4.4 46 5.5 W 19 26 10 14 1022.2 1022.3 0.0
29/02:00pm 16.0 11.7 5.3 49 5.1 W 17 28 9 15 1022.2 1022.3 0.0
29/01:30pm 15.7 11.2 4.4 47 5.3 WSW 17 28 9 15 1022.6 1022.7 0.0
29/01:00pm 15.3 11.2 4.4 48 5.1 WSW 15 24 8 13 1022.8 1022.9 0.0
29/12:30pm 15.1 11.1 5.0 51 4.8 W 15 22 8 12 1023.3 1023.4 0.0
29/12:00pm 14.8 11.5 6.6 58 4.0 W 13 19 7 10 1023.9 1024.1 0.0
29/11:30am 13.0 9.7 6.4 64 3.2 W 13 17 7 9 1024.5 1024.7 0.0
29/11:00am 12.2 8.9 6.5 68 2.7 WSW 13 19 7 10 1025.1 1025.3 0.0
29/10:30am 10.8 7.5 6.2 73 2.2 W 13 19 7 10 1025.4 1025.6 0.0
29/10:00am 9.9 6.6 6.3 78 1.7 W 13 19 7 10 1025.7 1025.9 0.0
29/09:30am 8.4 4.9 5.3 81 1.4 W 13 15 7 8 1025.6 1025.8 0.0
29/09:00am 6.9 4.4 4.0 82 1.3 W 6 9 3 5 1025.4 1025.6 0.0
29/08:30am 5.4 3.6 3.4 87 0.8 S 2 7 1 4 1025.3 1025.5 0.0
29/08:00am 4.2 2.8 3.5 95 0.3 CALM 0 0 0 0 1025.0 1025.2 0.0
29/07:45am 2.6 0.9 2.0 96 0.2 CALM 0 0 0 0 1024.9 1025.1 0.0
29/07:30am 1.7 -0.1 1.3 97 0.2 CALM 0 0 0 0 1024.8 1025.0 0.0
29/07:00am 0.8 -2.5 0.4 97 0.1 S 7 9 4 5 1024.6 1024.8 0.0
29/06:46am 1.1 -2.5 0.7 97 0.2 S 9 9 5 5 1024.4 1024.6 0.0
29/06:30am 1.2 -2.0 0.8 97 0.2 SSE 7 7 4 4 1024.4 1024.6 0.0
29/06:00am 1.6 -0.6 1.2 97 0.2 SSE 2 7 1 4 1024.3 1024.5 0.0
29/05:45am 1.8 0.0 1.2 96 0.2 CALM 0 0 0 0 1024.2 1024.4 0.0
29/05:36am 1.7 -0.5 1.1 96 0.2 SSE 2 6 1 3 1024.2 1024.4 0.0
29/05:30am 1.9 -1.0 1.3 96 0.2 SSE 6 7 3 4 1024.1 1024.3 0.0
29/05:25am 1.9 -1.0 1.3 96 0.2 SE 6 7 3 4 1024.1 1024.3 0.0
29/05:00am 1.9 -0.7 1.2 95 0.3 ESE 4 6 2 3 1024.1 1024.3 0.0
29/04:59am 1.9 -0.7 1.2 95 0.3 ESE 4 6 2 3 1024.1 1024.3 0.0
29/04:30am 2.1 -0.8 1.4 95 0.3 SSE 6 7 3 4 1023.9 1024.1 0.0
29/04:00am 2.3 -0.8 1.4 94 0.3 SSW 7 9 4 5 1024.0 1024.2 0.0
29/03:30am 2.7 -0.7 1.7 93 0.4 SW 9 11 5 6 1024.0 1024.2 0.0
29/03:00am 3.4 0.1 2.4 93 0.4 SW 9 13 5 7 1024.2 1024.4 0.0
29/02:30am 3.9 -0.1 3.0 94 0.4 SW 13 13 7 7 1024.3 1024.5 0.0
29/02:00am 4.2 0.7 3.3 94 0.4 WSW 11 13 6 7 1024.3 1024.5 0.0
29/01:30am 4.5 1.4 3.5 93 0.4 WSW 9 11 5 6 1024.5 1024.7 0.0
29/01:00am 4.5 1.0 3.3 92 0.5 WSW 11 11 6 6 1024.6 1024.8 0.0
29/12:30am 5.3 2.7 4.1 92 0.5 W 7 9 4 5 1024.7 1024.9 0.0
29/12:00am 4.8 3.3 3.1 89 0.7 CALM 0 6 0 3 1024.7 1024.9 0.0
 
Date/Time
EST
Temp
°C
App
Temp
°C
Dew
Point
°C
Rel
Hum
%
Delta-T
°C
Wind Press
QNH
hPa
Press
MSL
hPa
Rain since
9am
mm
Dir  Spd
km/h
Gust
km/h
Spd
kts
Gust
kts
28/11:30pm 6.0 3.0 4.0 87 0.9 W 9 9 5 5 1024.7 1024.9 0.0
28/11:00pm 6.7 3.8 4.4 85 1.0 W 9 11 5 6 1024.8 1025.0 0.0
28/10:30pm 7.3 3.6 4.6 83 1.2 W 13 15 7 8 1024.9 1025.1 0.0
28/10:00pm 7.2 4.0 4.9 85 1.0 NW 11 13 6 7 1025.0 1025.2 0.0
28/09:30pm 7.7 4.1 4.8 82 1.3 W 13 15 7 8 1024.9 1025.1 0.0
28/09:00pm 7.9 3.9 4.8 81 1.4 WSW 15 17 8 9 1025.0 1025.2 0.0
28/08:30pm 8.1 5.2 4.9 80 1.4 W 9 11 5 6 1025.1 1025.3 0.0
28/08:00pm 8.5 4.8 4.5 76 1.8 W 13 15 7 8 1024.9 1025.1 0.0
28/07:30pm 9.2 5.6 4.8 74 2.0 WSW 13 15 7 8 1024.8 1025.0 0.0
28/07:00pm 9.9 6.2 4.7 70 2.3 WSW 13 13 7 7 1024.5 1024.7 0.0
28/06:30pm 10.6 6.2 4.9 68 2.6 SW 17 17 9 9 1024.3 1024.5 0.0
28/06:00pm 11.5 7.8 4.5 62 3.2 SW 13 15 7 8 1024.3 1024.5 0.0
28/05:30pm 13.0 9.0 4.9 58 3.8 SW 15 19 8 10 1024.0 1024.2 0.0
28/05:00pm 14.8 10.1 5.1 52 4.6 SW 19 26 10 14 1023.8 1024.0 0.0
28/04:30pm 15.6 10.7 4.9 49 5.1 SW 20 26 11 14 1023.7 1023.9 0.0
28/04:00pm 15.9 10.9 4.6 47 5.3 SW 20 26 11 14 1023.8 1024.0 0.0
28/03:30pm 16.2 11.1 3.9 44 5.8 SW 20 28 11 15 1023.8 1024.0 0.0
28/03:00pm 16.2 11.2 4.6 46 5.5 SW 20 32 11 17 1023.8 1024.0 0.0
28/02:30pm 16.7 10.8 3.7 42 6.1 SSW 24 32 13 17 1023.8 1024.0 0.0
28/02:00pm 16.5 11.4 3.9 43 5.9 SW 20 28 11 15 1024.2 1024.4 0.0
28/01:30pm 16.0 10.7 5.0 48 5.3 WSW 22 33 12 18 1024.5 1024.7 0.0
28/01:00pm 15.6 10.0 5.5 51 4.8 WSW 24 32 13 17 1024.9 1025.1 0.0
28/12:30pm 15.5 10.2 4.8 49 5.1 SW 22 32 12 17 1025.5 1025.7 0.0
28/12:00pm 15.1 10.4 5.9 54 4.4 SW 20 28 11 15 1025.9 1026.1 0.0
28/11:30am 14.3 9.0 4.9 53 4.4 WSW 22 28 12 15 1026.4 1026.5 0.0
28/11:00am 13.9 9.2 6.0 59 3.8 SW 20 32 11 17 1026.7 1026.8 0.0
28/10:30am 12.9 8.7 5.6 61 3.5 SW 17 22 9 12 1026.9 1027.0 0.0
28/10:00am 11.9 9.0 6.6 70 2.5 SSW 11 17 6 9 1026.9 1027.0 0.0
28/09:30am 10.7 7.8 6.3 74 2.1 SW 11 17 6 9 1026.7 1026.8 0.0
28/09:00am 8.9 5.5 5.8 81 1.4 SW 13 15 7 8 1026.8 1026.9 0.0
28/08:30am 6.9 3.6 4.7 86 1.0 SW 11 15 6 8 1026.9 1027.0 0.0
28/08:00am 5.0 1.9 3.5 90 0.6 SW 9 11 5 6 1026.6 1026.7 0.0
28/07:30am 3.9 0.7 3.2 95 0.3 W 9 9 5 5 1026.4 1026.5 0.0
28/07:00am 2.6 -0.4 2.0 96 0.2 W 7 7 4 4 1025.9 1026.1 0.0

Other Formats:

Comma delimited format used in spreadsheet applications
http://www.bom.gov.au/fwo/IDN60801/IDN60801.95527.axf

JavaScript Object Notation format (JSON) in row-major order
http://www.bom.gov.au/fwo/IDN60801/IDN60801.95527.json